Land O' Lakes, WI

5:55 AM CDT on April 25, 2018 (GMT -0500)
Kings Land O'Lakes

Weather History for KLNL - April, 2013

Change the Weather History Date:

Saturday, April 6, 2013

  Actual Average (KEGV) Record (KEGV)
Temperature  
Mean Temperature 34 °F -  
Max Temperature 39 °F 53 °F 76 °F (1991)
Min Temperature 30 °F 31 °F -4 °F (2003)
Degree Days  
Heating Degree Days 30    
Moisture  
Dew Point 30 °F    
Average Humidity 87    
Maximum Humidity 100    
Minimum Humidity 48    
Precipitation  
Precipitation 0.17 in - - ()
Sea Level Pressure  
Sea Level Pressure 29.75 in    
Wind  
Wind Speed 7 mph (SSE)    
Max Wind Speed 15 mph    
Max Gust Speed 25 mph    
Visibility 5 miles    
Events Rain , Snow    
Averages and records for this station are not official NWS values.
T = Trace of Precipitation, MM = Missing Value Source: NWS Daily Summary

Daily Weather History Graph

Daily Weather History Graph

Search for Another Location

Airport or City:

Astronomy

Apr. 06, 2013 Rise Set
Actual Time 6:26 AM CDT 7:32 PM CDT
Civil Twilight 5:55 AM CDT 8:03 PM CDT
Nautical Twilight 5:19 AM CDT 8:40 PM CDT
Astronomical Twilight 4:40 AM CDT 9:19 PM CDT
Moon 4:22 AM CDT (4/6) 3:50 PM CDT (4/6)
Length of Visible Light 14h 07m
Length of Day
13h 05m
Waning Crescent, 15% of the Moon is Illuminated
Apr 6
Waning Crescent
Apr 10
New
Apr 18
First Quarter
Apr 25
Full
May 2
Last Quarter

Hourly Weather History & Observations

Time (CDT) Temp. Windchill Dew Point Humidity Pressure Visibility Wind Dir Wind Speed Gust Speed Precip Events Conditions
12:15 AM 32.0 °F 28.7 °F 14.0 °F 48% 30.07 in 10.0 mi SSE 3.5 mph - N/A   Overcast
12:35 AM 32.0 °F 28.7 °F 15.8 °F 51% 30.07 in 10.0 mi South 3.5 mph - N/A   Overcast
12:55 AM 32.0 °F 24.8 °F 21.2 °F 64% 30.07 in 10.0 mi SSW 8.1 mph - N/A Snow Light Snow
1:15 AM 32.0 °F 24.8 °F 23.0 °F 69% 30.07 in 10.0 mi South 8.1 mph - N/A   Overcast
1:35 AM 32.0 °F 24.8 °F 26.6 °F 80% 30.06 in 10.0 mi South 8.1 mph - N/A Snow Light Snow
1:55 AM 32.0 °F 25.6 °F 28.4 °F 87% 30.06 in 2.5 mi South 6.9 mph - N/A Snow Light Snow
2:15 AM 30.2 °F 25.4 °F 28.4 °F 93% 30.05 in 1.8 mi SSE 4.6 mph - N/A Snow Light Snow
2:35 AM 30.2 °F 26.7 °F 28.4 °F 93% 30.03 in 1.8 mi SE 3.5 mph - N/A Snow Light Snow
2:55 AM 30.2 °F 24.3 °F 28.4 °F 93% 30.03 in 1.8 mi SSE 5.8 mph - N/A Snow Light Snow
3:15 AM 30.2 °F 23.4 °F 28.4 °F 93% 30.01 in 2.0 mi SSE 6.9 mph - N/A Snow Light Snow
3:35 AM 30.2 °F 23.4 °F 28.4 °F 93% 30.00 in 3.0 mi SSE 6.9 mph - N/A Snow Light Snow
3:55 AM 30.2 °F 21.9 °F 28.4 °F 93% 29.99 in 2.5 mi SSE 9.2 mph 16.1 mph N/A Snow Light Snow
4:15 AM 30.2 °F 21.3 °F 28.4 °F 93% 29.98 in 3.0 mi SSE 10.4 mph - N/A Snow Light Snow
4:35 AM 30.2 °F 22.6 °F 28.4 °F 93% 29.97 in 1.2 mi SSE 8.1 mph - N/A Snow Light Snow
4:55 AM 30.2 °F 22.6 °F 28.4 °F 93% 29.96 in 1.5 mi SE 8.1 mph 16.1 mph N/A Snow Light Snow
5:15 AM 30.2 °F 21.9 °F 28.4 °F 93% 29.95 in 1.2 mi SSE 9.2 mph - N/A Snow Light Snow
5:35 AM 30.2 °F 21.9 °F 28.4 °F 93% 29.94 in 1.8 mi SE 9.2 mph - N/A Snow Light Snow
5:55 AM 30.2 °F 22.6 °F 28.4 °F 93% 29.93 in 2.0 mi SSE 8.1 mph - N/A Snow Light Snow
6:15 AM 30.2 °F 20.8 °F 28.4 °F 93% 29.93 in 2.5 mi SE 11.5 mph 17.3 mph N/A Snow Light Snow
6:35 AM 30.2 °F 19.3 °F 28.4 °F 93% 29.91 in 2.5 mi SE 15.0 mph 20.7 mph N/A Snow Light Snow
6:55 AM 30.2 °F 20.2 °F 28.4 °F 93% 29.91 in 1.5 mi SSE 12.7 mph 20.7 mph N/A Snow Light Snow
7:15 AM 30.2 °F 21.3 °F 28.4 °F 93% 29.90 in 2.5 mi SSE 10.4 mph 18.4 mph N/A Snow Light Snow
7:35 AM 30.2 °F 21.9 °F 26.6 °F 86% 29.89 in 7.0 mi SE 9.2 mph 21.9 mph N/A Snow Light Snow
7:55 AM 30.2 °F 19.3 °F 26.6 °F 86% 29.89 in 10.0 mi SSE 15.0 mph 19.6 mph N/A Snow Light Snow
8:15 AM 30.2 °F 19.3 °F 26.6 °F 86% 29.87 in 4.0 mi SSE 15.0 mph 25.3 mph N/A Snow Light Snow
8:35 AM 30.2 °F 20.2 °F 28.4 °F 93% 29.86 in 7.0 mi SSE 12.7 mph 17.3 mph N/A Snow Light Snow
8:55 AM 30.2 °F 20.2 °F 28.4 °F 93% 29.85 in 5.0 mi SSE 12.7 mph 18.4 mph N/A Snow Light Snow
9:15 AM 30.2 °F 20.2 °F 28.4 °F 93% 29.84 in 4.0 mi SSE 12.7 mph 17.3 mph N/A Snow Light Snow
9:35 AM 32.0 °F 23.6 °F 28.4 °F 87% 29.84 in 4.0 mi SSE 10.4 mph 16.1 mph N/A Snow Light Snow
9:55 AM 32.0 °F 22.5 °F 28.4 °F 87% 29.83 in 7.0 mi SSE 12.7 mph 17.3 mph N/A Snow Light Snow
10:15 AM 32.0 °F 23.0 °F 28.4 °F 87% 29.81 in 3.0 mi SE 11.5 mph 19.6 mph N/A Snow Light Snow
10:35 AM 32.0 °F 22.5 °F 28.4 °F 87% 29.80 in 3.0 mi SSE 12.7 mph 19.6 mph N/A Snow Light Snow
10:55 AM 32.0 °F 24.8 °F 28.4 °F 87% 29.79 in 10.0 mi SE 8.1 mph 18.4 mph N/A   Overcast
11:15 AM 32.0 °F 22.1 °F 28.4 °F 87% 29.77 in 7.0 mi SSE 13.8 mph 18.4 mph N/A   Overcast
11:35 AM 32.0 °F 22.5 °F 28.4 °F 87% 29.75 in 10.0 mi SSE 12.7 mph 18.4 mph 0.01 in   Overcast
11:55 AM 32.0 °F 22.5 °F 28.4 °F 87% 29.74 in 10.0 mi SSE 12.7 mph 19.6 mph 0.01 in   Overcast
12:15 PM 33.8 °F 24.8 °F 28.4 °F 81% 29.73 in 10.0 mi SSE 12.7 mph 17.3 mph N/A   Overcast
12:35 PM 33.8 °F 24.8 °F 30.2 °F 87% 29.71 in 10.0 mi SSE 12.7 mph - N/A   Overcast
12:55 PM 33.8 °F 25.8 °F 30.2 °F 87% 29.70 in 10.0 mi SSE 10.4 mph 17.3 mph N/A   Overcast
1:15 PM 33.8 °F 27.0 °F 30.2 °F 87% 29.69 in 10.0 mi SSE 8.1 mph 17.3 mph N/A   Overcast
1:35 PM 33.8 °F 27.0 °F 30.2 °F 87% 29.67 in 10.0 mi SSE 8.1 mph - 0.02 in   Overcast
1:55 PM 35.6 °F 28.0 °F 30.2 °F 81% 29.66 in 10.0 mi SSE 10.4 mph - 0.05 in   Overcast
2:15 PM 37.4 °F 30.3 °F 30.2 °F 75% 29.64 in 10.0 mi SSE 10.4 mph - N/A   Overcast
2:35 PM 37.4 °F 32.1 °F 30.2 °F 75% 29.63 in 10.0 mi SSE 6.9 mph 16.1 mph N/A   Overcast
2:55 PM 37.4 °F 32.1 °F 32.0 °F 81% 29.62 in 10.0 mi SE 6.9 mph - N/A Rain Light Rain
3:15 PM 37.4 °F 33.8 °F 32.0 °F 81% 29.60 in 10.0 mi SSE 4.6 mph - N/A   Overcast
3:35 PM 39.2 °F 35.9 °F 32.0 °F 75% 29.60 in 10.0 mi South 4.6 mph - N/A   Overcast
3:55 PM 39.2 °F 35.0 °F 32.0 °F 75% 29.59 in 10.0 mi South 5.8 mph - N/A Rain Light Rain
4:15 PM 39.2 °F 37.0 °F 32.0 °F 75% 29.59 in 10.0 mi SSE 3.5 mph - N/A   Overcast
4:35 PM 39.2 °F 35.9 °F 32.0 °F 75% 29.58 in 10.0 mi SSE 4.6 mph - N/A   Overcast
4:55 PM 39.2 °F 35.9 °F 32.0 °F 75% 29.57 in 10.0 mi SSE 4.6 mph - N/A Rain Light Rain
5:15 PM 39.2 °F 37.0 °F 32.0 °F 75% 29.56 in 7.0 mi SSE 3.5 mph - N/A Rain Rain
5:35 PM 37.4 °F 34.9 °F 33.8 °F 87% 29.55 in 7.0 mi SE 3.5 mph - N/A Rain Rain
5:55 PM 37.4 °F 34.9 °F 33.8 °F 87% 29.56 in 7.0 mi SE 3.5 mph - N/A Rain Rain
6:15 PM 37.4 °F - 33.8 °F 87% 29.56 in 7.0 mi Calm Calm - N/A   Drizzle
6:35 PM 37.4 °F - 33.8 °F 87% 29.55 in 5.0 mi Calm Calm - 0.01 in Rain Light Rain
6:55 PM 35.6 °F - 33.8 °F 93% 29.55 in 2.5 mi Calm Calm - 0.01 in Rain Light Rain
7:15 PM 35.6 °F - 33.8 °F 93% 29.54 in 2.0 mi Calm Calm - 0.01 in Rain Rain
7:35 PM 35.6 °F 32.8 °F 33.8 °F 93% 29.53 in 1.8 mi North 3.5 mph - 0.02 in Rain Light Rain
7:55 PM 35.6 °F - 33.8 °F 93% 29.53 in 2.5 mi Calm Calm - 0.02 in Rain Light Rain
8:15 PM 35.6 °F 32.8 °F 33.8 °F 93% 29.53 in 1.8 mi NNW 3.5 mph - 0.01 in Rain Rain
8:35 PM 35.6 °F - 33.8 °F 93% 29.53 in 1.5 mi Calm Calm - 0.03 in Rain Light Rain
8:55 PM 35.6 °F 32.8 °F 33.8 °F 93% 29.53 in 1.2 mi North 3.5 mph - 0.04 in Rain Light Rain
9:15 PM 35.6 °F 32.8 °F 33.8 °F 93% 29.53 in 1.8 mi North 3.5 mph - 0.01 in Rain Rain
9:35 PM 35.6 °F 32.8 °F 33.8 °F 93% 29.53 in 2.5 mi North 3.5 mph - 0.02 in Rain Rain
9:55 PM 33.8 °F 28.6 °F 33.8 °F 100% 29.53 in 3.0 mi North 5.8 mph - 0.03 in Snow Snow
10:15 PM 33.8 °F 29.6 °F 32.0 °F 93% 29.53 in 1.8 mi NNW 4.6 mph - 0.01 in Snow Light Snow
10:35 PM 33.8 °F 30.8 °F 32.0 °F 93% 29.52 in 1.2 mi NNW 3.5 mph - 0.01 in Snow Light Snow
10:55 PM 33.8 °F 30.8 °F 32.0 °F 93% 29.52 in 1.5 mi NNW 3.5 mph - 0.01 in Snow Light Snow
11:15 PM 32.0 °F 27.5 °F 32.0 °F 100% 29.53 in 1.8 mi NW 4.6 mph - N/A Snow Light Snow
11:35 PM 32.0 °F 26.4 °F 32.0 °F 100% 29.53 in 2.0 mi NW 5.8 mph - N/A Snow Light Snow
11:55 PM 32.0 °F 26.4 °F 32.0 °F 100% 29.53 in 2.5 mi NNW 5.8 mph - N/A Snow Light Snow